Time;durP1;ratioP1;P1;durP2;ratioP2;P2;SDS_P1;SDS_P2;PMS_P1;PMS_P2;Temp;Humidity;BMP_temperature;BMP_pressure;BME280_temperature;BME280_humidity;BME280_pressure;Samples;Min_cycle;Max_cycle;Signal;HPM_P1;HPM_P2
2022/05/06 00:00:18;;;;;;;23.98;20.83;;;13.00;99.90;;;;;;6147959;23;20243;-82
2022/05/06 00:02:45;;;;;;;23.30;20.88;;;13.00;99.90;;;;;;6144755;22;20309;-78
2022/05/06 00:05:12;;;;;;;24.30;21.90;;;13.00;99.90;;;;;;6140042;23;20187;-78
2022/05/06 00:07:39;;;;;;;25.23;22.50;;;13.00;99.90;;;;;;6134771;23;20179;-78
2022/05/06 00:10:09;;;;;;;24.00;21.65;;;13.00;99.90;;;;;;6147362;23;20236;-78
2022/05/06 00:12:37;;;;;;;23.33;20.80;;;13.00;99.90;;;;;;6168259;23;20939;-78
2022/05/06 00:15:06;;;;;;;25.35;22.67;;;13.10;99.90;;;;;;6173753;23;20284;-78
2022/05/06 00:17:35;;;;;;;23.90;21.60;;;13.00;99.90;;;;;;6149148;23;20712;-78
2022/05/06 00:20:03;;;;;;;25.02;22.55;;;13.10;99.90;;;;;;6168797;23;20193;-78
2022/05/06 00:22:31;;;;;;;23.10;20.73;;;13.10;99.90;;;;;;6172487;23;20182;-78
2022/05/06 00:24:58;;;;;;;23.95;21.58;;;13.10;99.90;;;;;;6180111;23;20270;-78
2022/05/06 00:27:25;;;;;;;23.80;21.50;;;13.00;99.90;;;;;;6175076;23;20189;-78
2022/05/06 00:29:52;;;;;;;22.02;19.88;;;13.10;99.90;;;;;;6171900;23;20187;-78
2022/05/06 00:32:19;;;;;;;23.70;21.38;;;13.10;99.90;;;;;;6171335;23;20618;-78
2022/05/06 00:34:47;;;;;;;23.27;20.98;;;13.10;99.90;;;;;;6160269;23;20202;-77
2022/05/06 00:37:14;;;;;;;21.27;19.23;;;13.10;99.90;;;;;;6171859;23;20193;-78
2022/05/06 00:39:41;;;;;;;22.90;20.30;;;13.20;99.90;;;;;;6175180;23;20210;-78
2022/05/06 00:42:09;;;;;;;22.08;19.88;;;13.10;99.90;;;;;;6174079;23;20296;-78
2022/05/06 00:44:36;;;;;;;22.10;19.88;;;13.20;99.90;;;;;;6167754;23;20189;-78
2022/05/06 00:47:05;;;;;;;22.75;20.45;;;13.20;99.90;;;;;;6167230;23;20273;-78
2022/05/06 00:49:33;;;;;;;21.67;19.48;;;13.20;99.90;;;;;;6169703;23;20648;-78
2022/05/06 00:52:03;;;;;;;21.63;19.48;;;13.30;99.90;;;;;;6163522;23;20604;-78
2022/05/06 00:54:31;;;;;;;21.57;19.47;;;13.30;99.90;;;;;;6171455;23;22161;-78
2022/05/06 00:56:59;;;;;;;22.97;20.33;;;13.40;99.90;;;;;;6160156;23;20534;-78
2022/05/06 00:59:28;;;;;;;21.33;19.37;;;13.40;99.90;;;;;;6174132;23;20467;-78
2022/05/06 01:01:57;;;;;;;24.10;21.02;;;13.50;99.90;;;;;;6175696;23;20491;-78
2022/05/06 01:04:25;;;;;;;22.30;19.87;;;13.40;99.90;;;;;;6174537;23;20620;-78
2022/05/06 01:06:51;;;;;;;21.08;19.15;;;13.30;99.90;;;;;;6160434;23;20438;-78
2022/05/06 01:09:20;;;;;;;20.88;19.00;;;13.30;99.90;;;;;;6161446;23;20283;-78
2022/05/06 01:11:47;;;;;;;20.40;18.50;;;13.30;99.90;;;;;;6172398;23;20273;-78
2022/05/06 01:14:31;;;;;;;22.65;20.30;;;13.30;99.90;;;;;;6171236;23;20463;-78
2022/05/06 01:16:58;;;;;;;19.83;17.90;;;13.30;99.90;;;;;;6161774;23;20218;-78
2022/05/06 01:19:25;;;;;;;22.98;20.77;;;13.20;99.90;;;;;;6169542;23;20266;-78
2022/05/06 01:21:54;;;;;;;19.88;17.98;;;13.20;99.90;;;;;;6170808;23;20727;-78
2022/05/06 01:24:22;;;;;;;19.65;17.75;;;13.20;99.90;;;;;;6174285;23;20216;-78
2022/05/06 01:26:57;;;;;;;20.73;18.73;;;13.20;99.90;;;;;;6163454;23;20202;-78
2022/05/06 01:29:25;;;;;;;20.20;18.23;;;13.20;99.90;;;;;;6165171;23;20206;-78
2022/05/06 01:31:53;;;;;;;20.38;18.38;;;13.20;99.90;;;;;;6172891;23;20214;-78
2022/05/06 01:34:26;;;;;;;20.02;17.92;;;13.20;99.90;;;;;;6160364;23;20742;-78
2022/05/06 01:36:58;;;;;;;21.73;19.30;;;13.20;99.90;;;;;;6171092;23;20222;-78
2022/05/06 01:39:30;;;;;;;19.55;17.60;;;13.20;99.90;;;;;;6168275;23;20269;-78
2022/05/06 01:42:03;;;;;;;20.23;18.23;;;13.10;99.90;;;;;;6177792;23;20238;-78
2022/05/06 01:44:35;;;;;;;19.65;17.75;;;13.10;99.90;;;;;;6168875;23;20186;-78
2022/05/06 01:47:06;;;;;;;19.83;17.83;;;13.10;99.90;;;;;;6171887;23;20271;-78
2022/05/06 01:49:33;;;;;;;21.23;17.90;;;13.20;99.90;;;;;;6176030;23;20273;-78
2022/05/06 01:52:02;;;;;;;19.75;17.75;;;13.20;99.90;;;;;;6177177;23;20259;-78
2022/05/06 01:54:30;;;;;;;19.25;17.40;;;13.20;99.90;;;;;;6173525;23;20227;-78
2022/05/06 01:56:59;;;;;;;19.35;17.35;;;13.20;99.90;;;;;;6172359;23;20205;-78
2022/05/06 01:59:26;;;;;;;17.27;15.68;;;13.20;99.90;;;;;;6177026;23;20270;-78
2022/05/06 02:01:53;;;;;;;19.55;17.70;;;13.20;99.90;;;;;;6164968;23;20258;-78
2022/05/06 02:07:20;;;;;;;19.15;17.30;;;13.20;99.90;;;;;;6074387;23;20283;-78
2022/05/06 02:09:47;;;;;;;19.65;17.85;;;13.10;99.90;;;;;;6076084;23;20181;-78
2022/05/06 02:12:14;;;;;;;19.50;17.15;;;13.10;99.90;;;;;;6116295;23;20273;-79
2022/05/06 02:14:41;;;;;;;19.15;17.35;;;13.10;99.90;;;;;;6172621;23;20681;-79
2022/05/06 02:17:08;;;;;;;17.83;16.10;;;13.10;99.90;;;;;;6167280;23;20288;-78
2022/05/06 02:19:35;;;;;;;19.20;17.35;;;13.10;99.90;;;;;;6165966;23;20194;-78
2022/05/06 02:22:02;;;;;;;18.70;16.77;;;13.10;99.90;;;;;;6175042;23;20593;-79
2022/05/06 02:24:30;;;;;;;17.88;16.15;;;13.10;99.90;;;;;;6163589;23;20269;-78
2022/05/06 02:26:57;;;;;;;18.10;16.33;;;13.00;99.90;;;;;;6166794;23;20185;-78
2022/05/06 02:29:24;;;;;;;17.98;16.38;;;13.00;99.90;;;;;;6173062;23;20659;-78
2022/05/06 02:34:36;;;;;;;18.50;16.08;;;13.10;99.90;;;;;;6174605;23;20213;-78
2022/05/06 02:37:03;;;;;;;19.05;16.17;;;13.10;99.90;;;;;;6173806;23;20185;-78
2022/05/06 02:39:31;;;;;;;17.90;16.30;;;13.20;99.90;;;;;;6169379;23;20183;-78
2022/05/06 02:41:58;;;;;;;16.95;15.25;;;13.20;99.90;;;;;;6168854;23;20209;-78
2022/05/06 02:44:25;;;;;;;17.90;16.13;;;13.20;99.90;;;;;;6175539;23;20222;-78
2022/05/06 02:46:52;;;;;;;17.08;15.25;;;13.20;99.90;;;;;;6169685;23;20197;-78
2022/05/06 02:49:19;;;;;;;18.52;16.73;;;13.10;99.90;;;;;;6155634;23;20183;-78
2022/05/06 02:51:46;;;;;;;19.33;17.33;;;13.10;99.90;;;;;;6170151;23;20222;-78
2022/05/06 02:54:13;;;;;;;17.95;16.35;;;13.10;99.90;;;;;;6162300;23;20557;-78
2022/05/06 02:56:42;;;;;;;17.02;15.45;;;13.10;99.90;;;;;;6165775;23;20828;-78
2022/05/06 02:59:08;;;;;;;16.15;14.45;;;13.00;99.90;;;;;;6166994;23;20187;-78
2022/05/06 03:01:35;;;;;;;19.48;16.13;;;13.00;99.90;;;;;;6168307;23;20730;-78
2022/05/06 03:04:03;;;;;;;17.17;15.52;;;12.90;99.90;;;;;;6170417;23;20182;-78
2022/05/06 03:06:30;;;;;;;17.80;16.00;;;12.90;99.90;;;;;;6166368;23;20182;-79
2022/05/06 03:08:57;;;;;;;17.27;15.57;;;12.90;99.90;;;;;;6156455;23;20592;-78
2022/05/06 03:11:24;;;;;;;16.88;15.20;;;13.00;99.90;;;;;;6166292;23;20198;-78
2022/05/06 03:13:52;;;;;;;16.00;14.40;;;13.00;99.90;;;;;;6172796;23;20325;-78
2022/05/06 03:16:19;;;;;;;17.95;16.05;;;13.00;99.90;;;;;;6164202;23;20743;-78
2022/05/06 03:18:46;;;;;;;16.58;15.10;;;13.00;99.90;;;;;;6174700;23;20533;-78
2022/05/06 03:21:13;;;;;;;18.30;15.43;;;13.00;99.90;;;;;;6162546;23;20199;-78
2022/05/06 03:23:40;;;;;;;16.85;14.85;;;13.10;99.90;;;;;;6171718;23;20209;-78
2022/05/06 03:26:07;;;;;;;15.13;13.77;;;13.10;99.90;;;;;;6163927;23;20202;-78
2022/05/06 03:28:35;;;;;;;16.08;14.55;;;13.20;99.90;;;;;;6175661;23;20231;-78
2022/05/06 03:31:03;;;;;;;16.55;14.95;;;13.20;99.90;;;;;;6170013;23;20237;-77
2022/05/06 03:33:30;;;;;;;16.23;14.50;;;13.20;99.90;;;;;;6163741;23;20264;-77
2022/05/06 03:35:57;;;;;;;15.02;13.60;;;13.20;99.90;;;;;;6175784;23;20218;-78
2022/05/06 03:38:24;;;;;;;15.35;14.02;;;13.20;99.90;;;;;;6167790;23;20190;-78
2022/05/06 03:40:52;;;;;;;14.25;12.85;;;13.20;99.90;;;;;;6176120;23;20694;-78
2022/05/06 03:43:19;;;;;;;13.65;12.55;;;13.20;99.90;;;;;;6176985;23;20261;-78
2022/05/06 03:45:46;;;;;;;13.05;11.95;;;13.20;99.90;;;;;;6176036;23;20633;-78
2022/05/06 03:48:14;;;;;;;13.90;12.80;;;13.20;99.90;;;;;;6173936;23;20261;-77
2022/05/06 03:53:26;;;;;;;14.40;13.07;;;13.20;99.90;;;;;;6176496;23;20225;-78
2022/05/06 03:55:53;;;;;;;15.57;14.07;;;13.10;99.90;;;;;;6174356;23;21059;-78
2022/05/06 03:58:20;;;;;;;14.90;13.50;;;13.10;99.90;;;;;;6175422;23;20507;-77
2022/05/06 04:00:47;;;;;;;13.57;12.45;;;13.00;99.90;;;;;;6167411;23;20206;-77
2022/05/06 04:03:15;;;;;;;15.82;14.45;;;13.10;99.90;;;;;;6173178;23;20193;-77
2022/05/06 04:05:42;;;;;;;15.38;13.98;;;13.00;99.90;;;;;;6157471;23;20178;-77
2022/05/06 04:08:09;;;;;;;15.13;13.68;;;13.00;99.90;;;;;;6172110;23;20194;-77
2022/05/06 04:10:37;;;;;;;13.98;12.65;;;13.00;99.90;;;;;;6168240;23;20735;-77
2022/05/06 04:13:04;;;;;;;15.52;14.23;;;13.10;99.90;;;;;;6167939;23;20201;-78
2022/05/06 04:15:32;;;;;;;15.18;13.68;;;13.00;99.90;;;;;;6172285;23;20220;-77
2022/05/06 04:17:59;;;;;;;15.48;14.10;;;13.00;99.90;;;;;;6170197;23;20190;-77
2022/05/06 04:23:32;;;;;;;15.05;13.60;;;12.90;99.90;;;;;;6167650;23;20828;-77
2022/05/06 04:26:00;;;;;;;15.60;14.18;;;12.90;99.90;;;;;;6172384;23;20186;-77
2022/05/06 04:28:27;;;;;;;15.88;14.38;;;12.80;99.90;;;;;;6161492;23;20598;-77
2022/05/06 04:30:55;;;;;;;14.20;12.95;;;12.70;99.90;;;;;;6168821;23;20210;-77
2022/05/06 04:33:24;;;;;;;17.70;16.10;;;12.70;99.90;;;;;;6168653;23;20186;-77
2022/05/06 04:35:54;;;;;;;17.30;15.70;;;12.70;99.90;;;;;;6175568;23;20210;-77
2022/05/06 04:38:22;;;;;;;16.70;15.20;;;12.60;99.90;;;;;;6172519;23;20182;-77
2022/05/06 04:40:49;;;;;;;17.52;15.68;;;12.50;99.90;;;;;;6171088;23;20204;-77
2022/05/06 04:43:18;;;;;;;18.02;16.45;;;12.50;99.90;;;;;;6174567;23;20186;-77
2022/05/06 04:45:45;;;;;;;18.67;16.88;;;12.40;99.90;;;;;;6169165;23;20190;-75
2022/05/06 04:48:13;;;;;;;16.58;15.07;;;12.40;99.90;;;;;;6159508;23;20220;-77
2022/05/06 04:50:41;;;;;;;18.88;17.13;;;12.40;99.90;;;;;;6164521;23;20202;-78
2022/05/06 04:53:11;;;;;;;17.90;16.17;;;12.40;99.90;;;;;;6161582;23;20757;-76
2022/05/06 04:55:39;;;;;;;17.80;16.10;;;12.40;99.90;;;;;;6172690;23;20306;-76
2022/05/06 04:58:08;;;;;;;17.05;15.35;;;12.30;99.90;;;;;;6168254;23;20182;-76
2022/05/06 05:00:36;;;;;;;15.90;14.60;;;12.30;99.90;;;;;;6171957;23;20209;-76
2022/05/06 05:03:04;;;;;;;16.23;14.57;;;12.30;99.90;;;;;;6170702;23;20222;-77
2022/05/06 05:05:31;;;;;;;16.10;14.63;;;12.30;99.90;;;;;;6171909;23;20659;-77
2022/05/06 05:07:58;;;;;;;15.65;14.10;;;12.30;99.90;;;;;;6172869;23;20239;-77
2022/05/06 05:10:27;;;;;;;16.42;14.88;;;12.20;99.90;;;;;;6175479;23;20226;-77
2022/05/06 05:12:54;;;;;;;15.10;13.80;;;12.20;99.90;;;;;;6166350;23;20182;-74
2022/05/06 05:15:22;;;;;;;10.88;9.90;;;12.20;99.90;;;;;;6146805;23;20259;-74
2022/05/06 05:17:49;;;;;;;13.38;12.30;;;12.40;99.90;;;;;;6154490;23;20222;-74
2022/05/06 05:20:16;;;;;;;14.60;13.20;;;12.40;99.90;;;;;;6161232;23;20206;-76
2022/05/06 05:22:46;;;;;;;16.85;15.15;;;12.50;99.90;;;;;;6163804;23;20201;-77
2022/05/06 05:25:13;;;;;;;15.90;14.40;;;12.50;99.90;;;;;;6165314;23;20281;-78
2022/05/06 05:27:42;;;;;;;17.13;15.63;;;12.50;99.90;;;;;;6160531;23;20240;-77
2022/05/06 05:30:11;;;;;;;16.30;14.70;;;12.60;99.90;;;;;;6177572;23;20564;-77
2022/05/06 05:32:39;;;;;;;15.95;14.35;;;12.60;99.90;;;;;;6160357;23;20214;-75
2022/05/06 05:35:08;;;;;;;16.55;15.07;;;12.60;99.90;;;;;;6170050;23;20298;-75
2022/05/06 05:37:35;;;;;;;16.52;14.90;;;12.50;99.90;;;;;;6170895;23;20259;-77
2022/05/06 05:40:02;;;;;;;16.92;15.13;;;12.50;99.90;;;;;;6166153;23;20201;-75
2022/05/06 05:42:29;;;;;;;17.90;15.40;;;12.50;99.90;;;;;;6171391;23;20182;-77
2022/05/06 05:50:29;;;;;;;17.70;16.10;;;12.50;99.90;;;;;;6169456;23;20285;-78
2022/05/06 05:52:56;;;;;;;16.92;15.45;;;12.50;99.90;;;;;;6166327;23;20183;-74
2022/05/06 05:55:23;;;;;;;13.23;11.32;;;12.60;99.90;;;;;;6169783;23;20216;-75
2022/05/06 05:57:49;;;;;;;13.10;12.00;;;12.70;99.90;;;;;;6175654;23;20186;-75
2022/05/06 06:00:18;;;;;;;14.55;13.25;;;12.70;99.90;;;;;;6174113;23;20228;-75
2022/05/06 06:02:45;;;;;;;14.05;12.70;;;12.80;99.90;;;;;;6165951;23;20186;-76
2022/05/06 06:05:12;;;;;;;14.05;12.82;;;12.70;99.90;;;;;;6178174;23;20213;-76
2022/05/06 06:07:40;;;;;;;14.48;13.18;;;12.80;99.90;;;;;;6173874;23;20189;-77
2022/05/06 06:10:08;;;;;;;14.10;12.90;;;12.80;99.90;;;;;;6157652;22;20237;-81
2022/05/06 06:12:35;;;;;;;14.18;12.80;;;12.70;99.90;;;;;;6141432;23;20186;-79
2022/05/06 06:15:02;;;;;;;12.75;11.55;;;12.70;99.90;;;;;;6139530;23;20214;-77
2022/05/06 06:17:31;;;;;;;13.38;12.27;;;12.70;99.90;;;;;;6138892;23;20234;-80
2022/05/06 06:19:58;;;;;;;12.82;11.73;;;12.70;99.90;;;;;;6146601;23;20297;-81
2022/05/06 06:22:25;;;;;;;12.63;11.43;;;12.70;99.90;;;;;;6148568;23;20751;-82
2022/05/06 06:24:52;;;;;;;13.50;12.23;;;12.70;99.90;;;;;;6142862;23;20214;-82
2022/05/06 06:27:19;;;;;;;14.00;12.73;;;12.80;99.90;;;;;;6145031;23;20202;-82
2022/05/06 06:29:49;;;;;;;11.48;10.50;;;12.70;99.90;;;;;;6130501;23;20566;-82
2022/05/06 06:32:16;;;;;;;11.15;10.23;;;12.80;99.90;;;;;;6145853;23;20190;-83
2022/05/06 06:34:45;;;;;;;12.63;11.45;;;12.80;99.90;;;;;;6137330;23;20198;-82
2022/05/06 06:37:13;;;;;;;11.90;10.77;;;12.80;99.90;;;;;;6132229;23;20199;-81
2022/05/06 06:39:40;;;;;;;12.50;11.30;;;12.90;99.90;;;;;;6140825;23;20235;-82
2022/05/06 06:42:08;;;;;;;11.50;10.40;;;12.80;99.90;;;;;;6137719;23;20195;-82
2022/05/06 06:44:36;;;;;;;12.05;11.05;;;12.90;99.90;;;;;;6132871;23;20266;-82
2022/05/06 06:47:09;;;;;;;12.52;11.32;;;12.90;99.90;;;;;;6132257;23;20657;-81
2022/05/06 06:49:36;;;;;;;13.57;10.15;;;12.90;99.90;;;;;;6136345;23;20642;-81
2022/05/06 06:52:05;;;;;;;9.15;8.35;;;13.00;99.90;;;;;;6140804;23;20222;-79
2022/05/06 06:54:32;;;;;;;12.38;11.35;;;13.00;99.90;;;;;;6138855;23;20313;-82
2022/05/06 06:56:59;;;;;;;12.02;10.70;;;13.10;99.90;;;;;;6140991;23;20581;-81
2022/05/06 06:59:26;;;;;;;11.07;10.05;;;13.20;99.90;;;;;;6141786;23;20210;-82
2022/05/06 07:01:53;;;;;;;11.65;10.65;;;13.20;99.90;;;;;;6136429;23;20183;-82
2022/05/06 07:04:20;;;;;;;11.02;10.05;;;13.30;99.90;;;;;;6129709;23;20183;-80
2022/05/06 07:12:17;;;;;;;12.32;11.10;;;13.20;99.90;;;;;;6132067;23;20187;-80
2022/05/06 07:14:44;;;;;;;11.95;10.75;;;13.20;99.90;;;;;;6133202;23;20538;-80
2022/05/06 07:17:13;;;;;;;13.50;10.38;;;13.20;99.90;;;;;;6129235;23;20183;-82
2022/05/06 07:19:40;;;;;;;11.15;10.15;;;13.30;99.90;;;;;;6133886;23;20203;-82
2022/05/06 07:22:07;;;;;;;10.38;9.48;;;13.30;99.90;;;;;;6147842;23;20274;-82
2022/05/06 07:24:35;;;;;;;9.27;8.48;;;13.40;99.90;;;;;;6145988;23;20239;-82
2022/05/06 07:27:02;;;;;;;11.18;10.23;;;13.50;99.90;;;;;;6144192;23;20186;-81
2022/05/06 07:29:31;;;;;;;11.40;9.13;;;13.50;99.90;;;;;;6133743;23;20213;-81
2022/05/06 07:31:57;;;;;;;10.73;9.82;;;13.50;99.90;;;;;;6143325;23;20440;-81
2022/05/06 07:34:24;;;;;;;12.23;9.15;;;13.70;99.90;;;;;;6142237;23;20188;-82
2022/05/06 07:36:51;;;;;;;12.85;9.90;;;13.70;99.90;;;;;;6135089;23;20219;-82
2022/05/06 07:39:18;;;;;;;10.43;9.38;;;13.70;99.90;;;;;;6136046;23;20206;-81
2022/05/06 07:41:47;;;;;;;10.70;9.70;;;13.80;99.90;;;;;;6125991;23;20228;-81
2022/05/06 07:44:14;;;;;;;9.95;9.05;;;13.90;99.90;;;;;;6137322;23;20217;-81
2022/05/06 07:46:41;;;;;;;9.00;8.20;;;14.00;99.90;;;;;;6141509;23;20225;-82
2022/05/06 07:49:08;;;;;;;10.93;10.02;;;14.10;99.90;;;;;;6142989;23;20325;-82
2022/05/06 07:51:35;;;;;;;8.93;8.02;;;14.20;99.90;;;;;;6138443;23;20186;-82
2022/05/06 07:54:03;;;;;;;9.80;8.90;;;14.30;99.90;;;;;;6142182;23;20691;-81
2022/05/06 07:56:30;;;;;;;9.77;8.88;;;14.50;99.90;;;;;;6138113;23;20996;-81
2022/05/06 07:58:59;;;;;;;19.20;9.40;;;14.60;99.90;;;;;;6138059;23;20307;-81
2022/05/06 08:06:53;;;;;;;10.20;9.30;;;15.00;99.90;;;;;;6130050;23;20947;-80
2022/05/06 08:09:21;;;;;;;8.07;7.43;;;15.20;99.90;;;;;;6117854;23;20864;-81
2022/05/06 08:11:48;;;;;;;8.53;7.80;;;15.20;99.90;;;;;;6123127;23;20449;-81
2022/05/06 08:14:17;;;;;;;8.87;8.20;;;15.40;99.90;;;;;;6132033;23;20957;-80
2022/05/06 08:16:44;;;;;;;8.53;7.67;;;15.60;99.90;;;;;;6137752;23;20480;-80
2022/05/06 08:19:11;;;;;;;8.23;7.40;;;15.80;99.90;;;;;;6139726;23;20989;-80
2022/05/06 08:21:39;;;;;;;8.77;8.00;;;16.00;99.90;;;;;;6141003;23;20887;-80
2022/05/06 08:24:08;;;;;;;8.47;7.77;;;16.10;99.90;;;;;;6136730;23;20440;-83
2022/05/06 08:26:37;;;;;;;7.80;7.20;;;16.30;99.90;;;;;;6139107;23;20464;-81
2022/05/06 08:29:04;;;;;;;8.83;8.10;;;16.30;99.90;;;;;;6134872;23;20468;-81
2022/05/06 08:31:37;;;;;;;8.63;7.83;;;16.30;99.90;;;;;;6134697;23;20847;-81
2022/05/06 08:34:07;;;;;;;8.50;7.80;;;16.30;99.90;;;;;;6139214;23;20441;-81
2022/05/06 08:36:35;;;;;;;8.30;7.50;;;16.20;99.90;;;;;;6140134;23;20460;-81
2022/05/06 08:39:02;;;;;;;7.17;6.67;;;16.20;99.90;;;;;;6131251;23;20461;-82
2022/05/06 08:41:29;;;;;;;9.10;8.20;;;16.10;99.90;;;;;;6139212;23;21037;-81
2022/05/06 08:43:57;;;;;;;8.37;7.57;;;16.00;99.90;;;;;;6137685;23;20450;-82
2022/05/06 08:52:01;;;;;;;7.23;6.63;;;16.00;99.90;;;;;;6134567;23;20428;-81
2022/05/06 08:54:30;;;;;;;7.30;6.60;;;16.00;99.90;;;;;;6129259;23;22102;-80
2022/05/06 08:56:58;;;;;;;8.90;8.00;;;16.10;99.90;;;;;;6137450;23;20466;-83
2022/05/06 08:59:25;;;;;;;8.03;7.33;;;16.10;99.90;;;;;;6141257;23;20458;-83
2022/05/06 09:01:53;;;;;;;7.63;7.00;;;16.20;99.90;;;;;;6146377;23;20474;-83
2022/05/06 09:04:21;;;;;;;8.10;7.50;;;16.20;99.90;;;;;;6129209;23;20452;-82
2022/05/06 09:06:48;;;;;;;8.20;7.50;;;16.30;99.90;;;;;;6145481;23;20487;-85
2022/05/06 09:09:18;;;;;;;7.90;7.20;;;16.30;99.90;;;;;;6130345;23;20451;-83
2022/05/06 09:17:19;;;;;;;8.20;7.37;;;16.80;99.90;;;;;;6132590;23;20479;-83
2022/05/06 09:19:48;;;;;;;8.17;7.20;;;16.80;99.90;;;;;;6134565;23;20466;-81
2022/05/06 09:22:16;;;;;;;7.80;7.00;;;16.90;99.90;;;;;;6133691;23;20437;-82
2022/05/06 09:24:44;;;;;;;7.23;6.53;;;17.20;99.90;;;;;;6141384;23;20452;-82
2022/05/06 09:27:13;;;;;;;7.80;7.20;;;17.60;99.90;;;;;;6129321;23;20811;-82
2022/05/06 09:29:42;;;;;;;7.20;6.33;;;17.90;99.90;;;;;;6123918;23;20462;-83
2022/05/06 09:32:20;;;;;;;6.87;6.30;;;18.40;99.90;;;;;;6132002;23;20444;-83
2022/05/06 09:34:50;;;;;;;7.20;6.60;;;18.90;99.90;;;;;;6127561;23;20516;-83
2022/05/06 09:37:30;;;;;;;7.27;6.57;;;19.40;99.90;;;;;;6127546;23;20468;-83
2022/05/06 09:40:06;;;;;;;6.27;5.77;;;20.00;99.90;;;;;;6134252;23;20457;-83
2022/05/06 09:42:33;;;;;;;6.20;5.70;;;21.00;99.90;;;;;;6133423;23;20439;-83
2022/05/06 09:45:00;;;;;;;6.23;5.67;;;21.50;99.90;;;;;;6134430;23;20433;-82
2022/05/06 09:47:27;;;;;;;5.83;5.33;;;21.60;99.90;;;;;;6138690;23;20524;-83
2022/05/06 09:49:56;;;;;;;5.70;5.20;;;21.90;99.90;;;;;;6135162;23;20454;-84
2022/05/06 09:52:23;;;;;;;5.80;5.30;;;22.00;99.90;;;;;;6144607;23;20518;-84
2022/05/06 09:54:50;;;;;;;5.77;5.27;;;22.40;99.90;;;;;;6135333;23;20838;-85
2022/05/06 09:57:19;;;;;;;5.13;4.60;;;22.80;99.90;;;;;;6137930;23;20540;-85
2022/05/06 09:59:47;;;;;;;5.10;4.70;;;23.70;99.90;;;;;;6139941;23;20460;-86
2022/05/06 10:02:14;;;;;;;5.20;4.80;;;24.70;99.90;;;;;;6143316;23;20956;-86
2022/05/06 10:04:43;;;;;;;5.23;4.83;;;25.50;99.40;;;;;;6132696;23;20464;-86
2022/05/06 10:07:14;;;;;;;4.83;4.43;;;26.30;97.00;;;;;;6120466;23;20531;-84
2022/05/06 10:09:50;;;;;;;4.97;4.57;;;26.80;95.60;;;;;;6135361;23;20469;-84
2022/05/06 10:12:19;;;;;;;4.10;3.70;;;26.80;92.20;;;;;;6130377;23;20520;-84
2022/05/06 10:14:47;;;;;;;4.80;4.30;;;26.50;91.10;;;;;;6125087;23;20445;-85
2022/05/06 10:17:50;;;;;;;4.80;4.40;;;26.00;90.50;;;;;;6141368;23;20476;-84
2022/05/06 10:20:53;;;;;;;5.57;4.83;;;25.40;91.20;;;;;;6136236;23;20452;-84
2022/05/06 10:23:23;;;;;;;5.83;4.37;;;25.10;91.50;;;;;;6067101;23;20440;-85
2022/05/06 10:25:54;;;;;;;4.80;4.40;;;25.80;91.00;;;;;;6132871;23;20444;-84
2022/05/06 10:34:31;;;;;;;4.07;3.60;;;26.20;85.90;;;;;;6141674;23;20785;-79
2022/05/06 10:37:04;;;;;;;4.47;4.03;;;26.10;86.60;;;;;;6130637;23;20496;-85
2022/05/06 10:39:37;;;;;;;5.00;4.20;;;26.00;86.00;;;;;;6133181;23;20461;-89
2022/05/06 10:42:07;;;;;;;4.97;4.57;;;26.20;85.70;;;;;;6135601;23;20465;-86
2022/05/06 10:44:35;;;;;;;4.20;3.90;;;26.00;83.70;;;;;;6134571;23;20938;-84
2022/05/06 10:47:04;;;;;;;4.93;4.13;;;25.70;83.90;;;;;;6138110;23;20438;-84
2022/05/06 10:49:51;;;;;;;4.53;4.13;;;25.50;84.90;;;;;;6140142;23;20542;-85
2022/05/06 10:52:44;;;;;;;4.53;3.93;;;25.40;83.70;;;;;;6140147;23;20467;-84
2022/05/06 10:55:15;;;;;;;4.50;4.00;;;26.00;83.20;;;;;;6140843;23;20856;-84
2022/05/06 10:57:51;;;;;;;4.60;4.20;;;26.80;80.60;;;;;;6134496;23;21014;-84
2022/05/06 11:00:19;;;;;;;4.67;4.27;;;27.30;79.10;;;;;;6137469;23;21900;-87
2022/05/06 11:02:46;;;;;;;4.53;4.13;;;27.30;78.40;;;;;;6136843;23;20445;-86
2022/05/06 11:05:15;;;;;;;4.50;4.20;;;27.10;77.80;;;;;;6143499;23;20444;-86
2022/05/06 11:07:45;;;;;;;5.90;4.70;;;26.90;77.30;;;;;;6143917;23;20500;-85
2022/05/06 11:10:16;;;;;;;4.90;4.50;;;26.60;77.60;;;;;;6145120;23;20451;-85
2022/05/06 11:12:45;;;;;;;4.90;4.50;;;26.00;78.60;;;;;;6146248;23;20443;-86
2022/05/06 11:15:14;;;;;;;5.17;4.37;;;25.80;77.40;;;;;;6150026;23;20429;-86
2022/05/06 11:17:43;;;;;;;5.07;4.57;;;25.40;78.60;;;;;;6162963;23;20471;-87
2022/05/06 11:20:31;;;;;;;6.47;4.50;;;25.20;79.00;;;;;;6160799;23;20443;-87
2022/05/06 11:23:01;;;;;;;4.60;4.00;;;25.20;80.00;;;;;;6156082;23;21656;-87
2022/05/06 11:25:32;;;;;;;4.60;4.20;;;25.90;78.70;;;;;;6133180;23;20426;-86
2022/05/06 11:28:01;;;;;;;4.77;3.97;;;26.50;78.60;;;;;;6144759;23;20525;-87
2022/05/06 11:30:29;;;;;;;4.63;4.20;;;27.10;76.30;;;;;;6145447;23;20524;-88
2022/05/06 11:32:58;;;;;;;4.97;4.40;;;27.10;76.60;;;;;;6132320;23;20436;-86
2022/05/06 11:35:37;;;;;;;5.63;4.03;;;26.70;74.50;;;;;;6148055;23;20501;-90
2022/05/06 11:38:05;;;;;;;5.47;3.90;;;26.10;74.70;;;;;;6142118;23;20473;-87
2022/05/06 11:40:35;;;;;;;5.07;4.67;;;25.50;76.60;;;;;;6138674;23;20520;-88
2022/05/06 11:43:05;;;;;;;4.87;4.40;;;25.30;77.10;;;;;;6138753;23;21152;-86
2022/05/06 11:48:20;;;;;;;3.93;3.53;;;25.20;77.40;;;;;;6135681;23;20978;-86
2022/05/06 11:50:57;;;;;;;4.90;4.40;;;25.50;77.30;;;;;;6142318;23;20970;-86
2022/05/06 11:53:27;;;;;;;5.27;4.77;;;26.00;75.70;;;;;;6110161;23;20435;-88
2022/05/06 11:55:56;;;;;;;4.90;4.50;;;26.30;74.40;;;;;;6124587;23;20437;-87
2022/05/06 11:58:27;;;;;;;4.10;3.80;;;26.10;74.70;;;;;;6142569;23;20484;-86
2022/05/06 12:00:55;;;;;;;4.90;4.50;;;25.80;75.30;;;;;;6137414;23;20772;-87
2022/05/06 12:03:24;;;;;;;4.53;3.40;;;25.80;74.90;;;;;;6130471;23;20445;-87
2022/05/06 12:06:08;;;;;;;3.43;3.20;;;25.70;75.80;;;;;;6135854;23;20990;-87
2022/05/06 12:08:38;;;;;;;5.10;3.60;;;25.50;75.60;;;;;;6136869;23;20464;-87
2022/05/06 12:11:09;;;;;;;4.03;3.73;;;25.40;75.80;;;;;;6134825;23;20506;-87
2022/05/06 12:13:41;;;;;;;3.53;3.23;;;25.20;76.00;;;;;;6139127;23;20539;-86
2022/05/06 12:16:11;;;;;;;4.00;3.70;;;25.00;76.50;;;;;;6140680;23;20957;-86
2022/05/06 12:18:38;;;;;;;3.80;3.50;;;25.10;76.60;;;;;;6127575;23;20482;-87
2022/05/06 12:21:19;;;;;;;3.73;3.43;;;25.20;75.70;;;;;;6104144;23;20490;-86
2022/05/06 12:23:56;;;;;;;5.67;4.30;;;25.50;75.80;;;;;;6140430;23;20467;-87
2022/05/06 12:26:30;;;;;;;4.90;4.00;;;26.00;75.60;;;;;;6111284;23;20524;-86
2022/05/06 12:28:58;;;;;;;4.27;3.90;;;26.40;74.10;;;;;;6146660;23;20487;-87
2022/05/06 12:31:30;;;;;;;3.90;3.53;;;26.40;72.90;;;;;;6142399;23;20448;-86
2022/05/06 12:34:08;;;;;;;4.50;4.10;;;26.30;74.00;;;;;;6145610;23;20444;-87
2022/05/06 12:36:36;;;;;;;5.43;3.90;;;26.10;73.80;;;;;;6131436;23;20487;-87
2022/05/06 12:39:18;;;;;;;4.47;4.17;;;25.90;73.80;;;;;;6134663;23;20459;-87
2022/05/06 12:41:47;;;;;;;4.00;3.60;;;25.50;74.50;;;;;;6147249;23;20540;-90
2022/05/06 12:44:20;;;;;;;4.07;3.70;;;25.60;74.70;;;;;;6136793;23;20437;-88
2022/05/06 12:46:47;;;;;;;4.57;3.90;;;25.50;74.40;;;;;;6135902;23;20841;-87
2022/05/06 12:52:00;;;;;;;6.90;4.13;;;25.60;74.40;;;;;;6136345;23;20448;-87
2022/05/06 12:54:27;;;;;;;4.30;3.90;;;25.40;75.10;;;;;;6135495;23;20520;-86
2022/05/06 12:56:56;;;;;;;5.60;4.60;;;25.70;74.80;;;;;;6140484;23;20460;-87
2022/05/06 12:59:23;;;;;;;4.27;3.97;;;25.80;74.20;;;;;;6142950;23;20456;-87
2022/05/06 13:01:51;;;;;;;4.53;3.80;;;25.90;73.90;;;;;;6135064;23;20490;-87
2022/05/06 13:04:18;;;;;;;4.80;4.23;;;25.80;73.90;;;;;;6132994;23;20467;-87
2022/05/06 13:06:45;;;;;;;4.67;4.23;;;25.70;73.90;;;;;;6147324;23;20480;-87
2022/05/06 13:09:14;;;;;;;4.63;3.80;;;25.80;74.50;;;;;;6146308;23;20455;-86
2022/05/06 13:11:41;;;;;;;3.93;3.63;;;26.20;74.40;;;;;;6146764;23;20444;-88
2022/05/06 13:14:10;;;;;;;4.70;4.30;;;26.60;73.70;;;;;;6145000;23;20429;-87
2022/05/06 13:16:39;;;;;;;4.70;4.30;;;26.90;73.00;;;;;;6137725;23;20808;-86
2022/05/06 13:19:06;;;;;;;5.03;4.57;;;27.30;72.00;;;;;;6125511;23;20956;-87
2022/05/06 13:21:33;;;;;;;4.50;4.10;;;27.60;69.80;;;;;;6139962;23;20440;-89
2022/05/06 13:24:00;;;;;;;3.93;3.63;;;28.10;70.00;;;;;;6142709;23;20441;-87
2022/05/06 13:26:28;;;;;;;5.50;3.83;;;29.00;69.20;;;;;;6139272;23;20454;-87
2022/05/06 13:28:55;;;;;;;4.20;3.80;;;29.70;66.50;;;;;;6146088;23;20464;-87
2022/05/06 13:31:24;;;;;;;4.43;3.93;;;29.50;65.30;;;;;;6132837;23;20486;-85
2022/05/06 13:33:50;;;;;;;4.57;4.17;;;29.00;65.60;;;;;;6137797;23;20436;-86